Time;durP1;ratioP1;P1;durP2;ratioP2;P2;SDS_P1;SDS_P2;PMS_P1;PMS_P2;Temp;Humidity;BMP_temperature;BMP_pressure;BME280_temperature;BME280_humidity;BME280_pressure;Samples;Min_cycle;Max_cycle;Signal;HPM_P1;HPM_P2
2022/10/25 00:01:34;;;;;;;4.95;1.17;;;11.90;99.90;;;;;;5092441;28;20722;-54
2022/10/25 00:03:59;;;;;;;5.30;1.30;;;12.00;99.90;;;;;;5093329;28;20381;-54
2022/10/25 00:06:25;;;;;;;5.63;1.10;;;11.80;99.90;;;;;;5090953;28;20379;-54
2022/10/25 00:08:51;;;;;;;5.00;1.10;;;11.80;99.90;;;;;;5093069;28;20404;-54
2022/10/25 00:11:28;;;;;;;5.72;1.30;;;11.70;99.90;;;;;;5092730;28;20375;-56
2022/10/25 00:13:55;;;;;;;5.32;1.60;;;11.70;99.90;;;;;;5092920;28;20603;-54
2022/10/25 00:16:24;;;;;;;4.75;1.20;;;11.70;99.90;;;;;;5092355;28;20385;-55
2022/10/25 00:18:50;;;;;;;4.57;1.38;;;11.70;99.90;;;;;;5092393;28;20382;-54
2022/10/25 00:21:17;;;;;;;5.10;1.50;;;11.70;99.90;;;;;;5092532;28;20370;-54
2022/10/25 00:23:42;;;;;;;4.38;1.13;;;11.80;99.90;;;;;;5091811;28;20378;-55
2022/10/25 00:26:10;;;;;;;6.70;1.60;;;11.70;99.90;;;;;;5092496;28;20801;-54
2022/10/25 00:28:36;;;;;;;5.63;1.63;;;11.70;99.90;;;;;;5092011;28;20381;-54
2022/10/25 00:31:07;;;;;;;6.75;1.40;;;11.80;99.90;;;;;;5092027;28;20394;-55
2022/10/25 00:33:34;;;;;;;6.60;1.48;;;11.90;99.90;;;;;;5090548;28;20421;-54
2022/10/25 00:36:11;;;;;;;4.88;1.10;;;11.90;99.90;;;;;;5091918;28;20856;-54
2022/10/25 00:38:37;;;;;;;5.07;1.30;;;11.90;99.90;;;;;;5091838;28;20413;-54
2022/10/25 00:41:03;;;;;;;6.35;1.45;;;11.80;99.90;;;;;;5092106;28;20832;-54
2022/10/25 00:43:51;;;;;;;7.22;1.35;;;11.80;99.90;;;;;;5091391;28;20378;-54
2022/10/25 00:46:19;;;;;;;4.75;1.55;;;11.80;99.90;;;;;;5092251;28;20424;-54
2022/10/25 00:49:17;;;;;;;4.55;1.00;;;11.50;99.90;;;;;;5091715;28;20465;-54
2022/10/25 00:51:50;;;;;;;5.13;1.25;;;11.90;99.90;;;;;;5091210;28;20473;-54
2022/10/25 00:54:25;;;;;;;5.50;1.13;;;11.90;99.90;;;;;;5091829;28;20401;-54
2022/10/25 00:56:52;;;;;;;5.93;1.20;;;11.90;99.90;;;;;;5092048;28;20437;-54
2022/10/25 00:59:23;;;;;;;4.68;1.30;;;11.90;99.90;;;;;;5091651;28;20374;-54
2022/10/25 01:01:50;;;;;;;6.57;1.88;;;12.00;99.90;;;;;;5091953;28;20456;-54
2022/10/25 01:04:18;;;;;;;5.50;2.20;;;11.90;99.90;;;;;;5091920;28;20386;-55
2022/10/25 01:06:49;;;;;;;5.50;1.52;;;12.00;99.90;;;;;;5090748;28;20382;-55
2022/10/25 01:09:20;;;;;;;5.80;1.23;;;12.00;99.90;;;;;;5091544;28;20462;-54
2022/10/25 01:11:46;;;;;;;4.33;1.10;;;12.00;99.90;;;;;;5091025;28;20374;-54
2022/10/25 01:14:14;;;;;;;4.20;1.10;;;12.00;99.90;;;;;;5091602;28;20801;-54
2022/10/25 01:17:19;;;;;;;5.35;1.70;;;11.90;97.30;;;;;;5090774;28;20448;-54
2022/10/25 01:20:15;;;;;;;5.13;1.20;;;11.90;99.90;;;;;;5090343;28;20449;-55
2022/10/25 01:22:44;;;;;;;5.10;1.10;;;12.00;99.90;;;;;;5091098;28;20443;-54
2022/10/25 01:25:18;;;;;;;6.78;1.10;;;11.90;99.90;;;;;;5091659;28;20457;-54
2022/10/25 01:28:11;;;;;;;5.40;1.30;;;11.90;99.90;;;;;;5091394;28;20429;-55
2022/10/25 01:31:04;;;;;;;4.93;1.20;;;12.00;99.90;;;;;;5091008;28;20855;-55
2022/10/25 01:33:39;;;;;;;4.15;1.00;;;12.00;99.90;;;;;;5090602;28;20414;-55
2022/10/25 01:36:24;;;;;;;4.90;1.50;;;11.90;99.90;;;;;;5090975;28;20427;-54
2022/10/25 01:38:52;;;;;;;5.10;1.20;;;11.90;87.80;;;;;;5091292;28;20367;-54
2022/10/25 01:41:38;;;;;;;6.25;1.30;;;11.80;85.50;;;;;;5090513;28;20389;-54
2022/10/25 01:44:23;;;;;;;7.72;1.60;;;11.80;99.90;;;;;;5090797;28;20386;-55
2022/10/25 01:46:53;;;;;;;4.88;1.20;;;11.80;99.90;;;;;;5090968;28;20370;-55
2022/10/25 01:49:55;;;;;;;7.90;1.45;;;11.80;99.90;;;;;;5090934;28;20704;-55
2022/10/25 01:52:23;;;;;;;5.40;1.10;;;11.70;99.90;;;;;;5081765;28;20492;-55
2022/10/25 01:54:50;;;;;;;5.10;1.60;;;11.70;99.90;;;;;;5090517;28;20413;-54
2022/10/25 01:57:54;;;;;;;6.45;1.38;;;11.70;99.90;;;;;;5090427;28;20374;-54
2022/10/25 02:00:22;;;;;;;7.40;1.40;;;11.60;99.90;;;;;;5090844;28;20382;-54
2022/10/25 02:03:17;;;;;;;6.15;1.48;;;11.70;99.90;;;;;;5090725;28;20734;-54
2022/10/25 02:05:56;;;;;;;7.00;1.50;;;11.70;99.90;;;;;;5090000;28;20382;-55
2022/10/25 02:08:52;;;;;;;5.85;1.30;;;11.60;99.90;;;;;;5090188;28;20751;-55
2022/10/25 02:11:26;;;;;;;5.30;1.52;;;11.70;99.90;;;;;;5090828;28;20597;-54
2022/10/25 02:14:03;;;;;;;6.20;1.67;;;11.70;99.90;;;;;;5090626;28;20884;-54
2022/10/25 02:16:55;;;;;;;6.00;1.40;;;11.60;99.90;;;;;;5089911;28;20465;-54
2022/10/25 02:19:28;;;;;;;5.03;1.63;;;11.60;99.90;;;;;;5083285;28;20401;-56
2022/10/25 02:21:57;;;;;;;6.68;1.50;;;11.60;99.90;;;;;;5090348;28;20402;-54
2022/10/25 02:24:27;;;;;;;5.70;1.50;;;11.60;99.90;;;;;;5089770;28;20477;-54
2022/10/25 02:26:54;;;;;;;6.20;1.30;;;11.70;99.90;;;;;;5089808;28;20506;-54
2022/10/25 02:29:21;;;;;;;5.57;1.80;;;11.60;99.90;;;;;;5089703;28;20389;-54
2022/10/25 02:31:47;;;;;;;5.22;1.10;;;11.60;83.60;;;;;;5088704;28;20934;-54
2022/10/25 02:34:13;;;;;;;6.53;1.70;;;11.50;99.90;;;;;;5090366;28;20485;-54
2022/10/25 02:36:38;;;;;;;6.10;1.60;;;11.50;99.90;;;;;;5090080;28;20378;-54
2022/10/25 02:39:05;;;;;;;6.23;1.57;;;11.50;99.90;;;;;;5090216;28;20370;-54
2022/10/25 02:41:32;;;;;;;4.95;1.67;;;11.60;99.90;;;;;;5089169;28;20378;-54
2022/10/25 02:47:20;;;;;;;5.82;1.70;;;11.60;99.90;;;;;;5088871;28;20878;-54
2022/10/25 02:49:45;;;;;;;4.82;1.40;;;11.70;99.90;;;;;;5089231;28;20385;-54
2022/10/25 02:52:11;;;;;;;6.23;1.50;;;11.70;99.90;;;;;;5089888;28;20377;-54
2022/10/25 02:54:36;;;;;;;6.00;1.42;;;11.70;99.90;;;;;;5089343;28;20409;-54
2022/10/25 02:57:02;;;;;;;6.00;1.60;;;11.90;99.90;;;;;;5090376;28;20382;-54
2022/10/25 02:59:28;;;;;;;6.20;1.50;;;11.80;99.90;;;;;;5089896;28;20370;-54
2022/10/25 03:01:54;;;;;;;6.47;1.60;;;11.90;99.90;;;;;;5083139;28;20399;-54
2022/10/25 03:04:19;;;;;;;7.88;1.98;;;11.90;99.90;;;;;;5077019;28;20742;-54
2022/10/25 03:06:45;;;;;;;7.10;1.80;;;11.90;99.90;;;;;;5068439;28;20841;-54
2022/10/25 03:09:11;;;;;;;5.50;1.80;;;11.80;99.90;;;;;;5069576;28;20387;-54
2022/10/25 03:11:36;;;;;;;6.43;1.58;;;11.80;99.90;;;;;;5069321;28;20451;-54
2022/10/25 03:14:02;;;;;;;5.87;1.57;;;11.90;99.90;;;;;;5072797;28;20408;-54
2022/10/25 03:16:27;;;;;;;6.50;1.50;;;11.90;99.90;;;;;;5089604;28;20374;-54
2022/10/25 03:18:56;;;;;;;5.88;1.80;;;11.80;99.90;;;;;;5089982;28;20390;-54
2022/10/25 03:21:22;;;;;;;7.05;1.92;;;11.80;99.90;;;;;;5089642;28;20382;-55
2022/10/25 03:23:48;;;;;;;7.25;1.77;;;11.90;99.90;;;;;;5089817;28;20485;-55
2022/10/25 03:26:14;;;;;;;8.05;2.00;;;11.80;99.90;;;;;;5090032;28;20374;-54
2022/10/25 03:28:40;;;;;;;8.13;1.70;;;11.80;99.90;;;;;;5089449;28;20369;-54
2022/10/25 03:31:11;;;;;;;5.53;1.80;;;11.80;99.90;;;;;;5088337;28;20887;-54
2022/10/25 03:33:37;;;;;;;7.93;2.10;;;11.80;99.90;;;;;;5088439;28;20421;-54
2022/10/25 03:36:02;;;;;;;5.13;1.60;;;11.70;99.90;;;;;;5089896;28;20402;-54
2022/10/25 03:38:28;;;;;;;7.65;1.50;;;11.70;99.90;;;;;;5088886;28;20386;-54
2022/10/25 03:40:54;;;;;;;6.10;1.93;;;11.70;99.90;;;;;;5090317;28;20417;-54
2022/10/25 03:43:19;;;;;;;6.65;2.00;;;11.70;99.90;;;;;;5093060;28;20426;-54
2022/10/25 03:45:45;;;;;;;6.73;1.90;;;11.60;99.90;;;;;;5092248;28;20760;-54
2022/10/25 03:48:10;;;;;;;6.28;1.80;;;11.60;99.90;;;;;;5093031;28;20392;-54
2022/10/25 03:50:36;;;;;;;5.30;1.60;;;11.50;99.90;;;;;;5092411;28;20405;-54
2022/10/25 03:53:03;;;;;;;7.23;1.83;;;11.50;99.90;;;;;;5082482;28;20471;-54
2022/10/25 03:55:29;;;;;;;4.47;1.27;;;11.50;99.90;;;;;;5071806;28;20733;-54
2022/10/25 03:57:54;;;;;;;5.95;1.67;;;11.50;99.90;;;;;;5072508;28;20378;-54
2022/10/25 04:00:20;;;;;;;6.20;1.80;;;11.50;99.90;;;;;;5082020;28;20704;-54
2022/10/25 04:02:46;;;;;;;5.22;1.88;;;11.50;99.90;;;;;;5091344;28;20396;-54
2022/10/25 04:05:11;;;;;;;6.57;1.90;;;11.40;99.90;;;;;;5085708;28;20386;-54
2022/10/25 04:07:37;;;;;;;6.67;1.60;;;11.40;99.90;;;;;;5092258;28;20473;-54
2022/10/25 04:10:04;;;;;;;6.07;1.70;;;11.40;99.90;;;;;;5092693;28;20386;-54
2022/10/25 04:12:29;;;;;;;6.03;1.73;;;11.40;99.90;;;;;;5092833;28;20425;-54
2022/10/25 04:14:55;;;;;;;7.70;1.90;;;11.40;99.90;;;;;;5097679;28;20404;-54
2022/10/25 04:17:20;;;;;;;5.30;1.40;;;11.40;99.90;;;;;;5103382;28;20790;-54
2022/10/25 04:19:46;;;;;;;8.37;2.10;;;11.30;99.90;;;;;;5100786;28;20369;-54
2022/10/25 04:22:12;;;;;;;6.80;1.85;;;11.30;99.90;;;;;;5108465;28;20377;-54
2022/10/25 04:24:37;;;;;;;7.10;1.80;;;11.30;99.90;;;;;;5108551;28;20734;-54
2022/10/25 04:27:03;;;;;;;8.10;2.00;;;11.20;99.90;;;;;;5092141;28;20370;-54
2022/10/25 04:29:29;;;;;;;6.50;2.20;;;11.20;99.90;;;;;;5099958;28;20404;-55
2022/10/25 04:31:54;;;;;;;8.20;2.30;;;11.20;99.90;;;;;;5110460;28;20399;-54
2022/10/25 04:34:20;;;;;;;6.40;1.90;;;11.20;99.90;;;;;;5096505;28;20840;-54
2022/10/25 04:36:45;;;;;;;7.50;2.00;;;11.20;99.90;;;;;;5107875;28;20375;-54
2022/10/25 04:39:11;;;;;;;7.47;1.90;;;11.20;99.90;;;;;;5098643;28;20376;-54
2022/10/25 04:41:36;;;;;;;6.50;1.60;;;11.20;99.90;;;;;;5096409;28;20405;-57
2022/10/25 04:44:02;;;;;;;6.00;1.80;;;11.30;99.90;;;;;;5092524;28;20558;-56
2022/10/25 04:46:27;;;;;;;6.80;1.87;;;11.10;99.90;;;;;;5091246;28;20447;-57
2022/10/25 04:48:53;;;;;;;7.72;2.10;;;11.10;99.90;;;;;;5096052;28;20480;-57
2022/10/25 04:51:18;;;;;;;7.67;2.00;;;11.10;99.90;;;;;;5105276;28;20385;-57
2022/10/25 04:53:44;;;;;;;5.70;1.90;;;11.10;99.90;;;;;;5084237;28;20936;-57
2022/10/25 04:56:13;;;;;;;9.15;1.98;;;11.20;99.90;;;;;;5088199;28;20394;-57
2022/10/25 04:58:39;;;;;;;7.35;1.95;;;11.30;99.90;;;;;;5102213;28;20746;-54
2022/10/25 05:01:08;;;;;;;6.77;1.80;;;11.40;99.90;;;;;;5099670;28;20406;-57
2022/10/25 05:03:34;;;;;;;6.45;2.30;;;11.40;99.90;;;;;;5081141;28;20386;-58
2022/10/25 05:06:11;;;;;;;7.65;1.98;;;11.50;99.90;;;;;;5084715;28;20898;-59
2022/10/25 05:08:39;;;;;;;5.55;2.00;;;11.60;99.90;;;;;;5082308;28;20875;-58
2022/10/25 05:11:06;;;;;;;6.37;2.60;;;11.60;99.90;;;;;;5086465;28;20720;-56
2022/10/25 05:13:36;;;;;;;6.40;2.10;;;11.70;99.90;;;;;;5084649;28;20412;-55
2022/10/25 05:16:02;;;;;;;5.30;1.80;;;11.70;99.90;;;;;;5083642;28;20371;-55
2022/10/25 05:18:29;;;;;;;6.60;1.83;;;11.80;99.90;;;;;;5080317;28;20465;-55
2022/10/25 05:20:57;;;;;;;7.00;2.00;;;11.80;99.90;;;;;;5081786;28;20388;-57
2022/10/25 05:23:23;;;;;;;8.00;2.55;;;11.80;99.90;;;;;;5090685;28;20381;-56
2022/10/25 05:25:58;;;;;;;8.73;2.72;;;11.80;99.90;;;;;;5088697;28;20442;-55
2022/10/25 05:28:24;;;;;;;6.20;2.10;;;11.80;99.90;;;;;;5089141;28;20379;-59
2022/10/25 05:30:50;;;;;;;7.05;2.53;;;11.70;99.90;;;;;;5090006;28;20390;-56
2022/10/25 05:33:15;;;;;;;7.50;2.23;;;11.70;99.90;;;;;;5090678;28;20418;-53
2022/10/25 05:35:41;;;;;;;7.50;2.03;;;11.60;99.90;;;;;;5090294;28;20417;-54
2022/10/25 05:38:06;;;;;;;8.23;2.08;;;11.60;99.90;;;;;;5091338;28;20392;-54
2022/10/25 05:40:32;;;;;;;6.30;1.87;;;11.60;99.90;;;;;;5089719;28;20398;-54
2022/10/25 05:42:58;;;;;;;6.00;2.10;;;11.70;99.90;;;;;;5090923;28;20919;-53
2022/10/25 05:45:24;;;;;;;6.80;1.90;;;11.60;99.90;;;;;;5090773;28;20386;-55
2022/10/25 05:47:50;;;;;;;8.10;1.80;;;11.60;99.90;;;;;;5090193;28;20367;-54
2022/10/25 05:50:15;;;;;;;8.23;2.20;;;11.50;99.90;;;;;;5090833;28;20466;-59
2022/10/25 05:52:42;;;;;;;6.95;1.90;;;11.60;99.90;;;;;;5090366;28;20866;-57
2022/10/25 05:55:08;;;;;;;9.13;2.28;;;11.60;99.90;;;;;;5090479;28;20397;-57
2022/10/25 05:57:34;;;;;;;9.13;2.30;;;11.60;99.90;;;;;;5090292;28;20362;-58
2022/10/25 05:59:59;;;;;;;6.55;2.33;;;11.60;99.90;;;;;;5091000;28;20420;-58
2022/10/25 06:02:25;;;;;;;7.43;2.13;;;11.60;99.90;;;;;;5089559;28;20902;-58
2022/10/25 06:04:50;;;;;;;6.00;2.30;;;11.60;99.90;;;;;;5081497;28;20453;-58
2022/10/25 06:07:16;;;;;;;8.35;2.30;;;11.60;99.90;;;;;;5090736;28;20381;-58
2022/10/25 06:09:42;;;;;;;8.70;2.20;;;11.60;99.90;;;;;;5089829;28;20382;-57
2022/10/25 06:12:07;;;;;;;8.60;2.80;;;11.70;99.90;;;;;;5090676;28;20769;-55
2022/10/25 06:14:33;;;;;;;8.15;2.00;;;11.70;99.90;;;;;;5089918;28;20405;-56
2022/10/25 06:16:58;;;;;;;6.10;2.20;;;11.80;99.90;;;;;;5090474;28;21115;-55
2022/10/25 06:19:24;;;;;;;7.67;2.23;;;11.80;99.90;;;;;;5090012;28;20412;-55
2022/10/25 06:21:52;;;;;;;10.63;2.50;;;11.90;99.90;;;;;;5089434;28;20374;-55
2022/10/25 06:24:18;;;;;;;6.25;1.92;;;11.90;99.90;;;;;;5090070;28;20480;-55
2022/10/25 06:26:43;;;;;;;7.95;1.77;;;12.00;99.90;;;;;;5089808;28;20453;-55
2022/10/25 06:29:09;;;;;;;6.80;1.80;;;12.00;71.80;;;;;;5089904;28;20393;-55
2022/10/25 06:31:34;;;;;;;6.07;1.80;;;12.00;58.30;;;;;;5089187;28;20378;-55
2022/10/25 06:34:01;;;;;;;8.88;2.20;;;12.00;23.20;;;;;;5090190;28;20405;-55
2022/10/25 06:36:30;;;;;;;8.30;2.20;;;12.10;54.20;;;;;;5088547;28;20506;-56
2022/10/25 06:38:56;;;;;;;6.68;1.95;;;12.10;49.40;;;;;;5090332;28;20370;-55
2022/10/25 06:41:26;;;;;;;7.10;2.30;;;12.10;45.20;;;;;;5089783;28;20374;-55
2022/10/25 06:43:53;;;;;;;7.05;2.00;;;12.10;84.10;;;;;;5089675;28;20835;-55
2022/10/25 06:46:26;;;;;;;7.20;1.98;;;12.20;65.90;;;;;;5089631;28;20378;-55
2022/10/25 06:48:54;;;;;;;11.40;2.30;;;12.30;60.80;;;;;;5089146;28;20871;-55
2022/10/25 06:51:21;;;;;;;7.05;2.10;;;12.40;27.50;;;;;;5089857;28;20370;-55
2022/10/25 06:53:51;;;;;;;6.78;1.70;;;12.50;8.20;;;;;;5089436;28;20402;-55
2022/10/25 06:56:17;;;;;;;7.55;2.10;;;12.60;11.70;;;;;;5072182;28;20390;-55
2022/10/25 06:58:43;;;;;;;7.22;1.80;;;13.20;1.00;;;;;;5088856;28;20858;-55
2022/10/25 07:01:11;;;;;;;6.07;1.95;;;13.50;1.00;;;;;;5089798;28;20382;-55
2022/10/25 07:03:37;;;;;;;9.13;1.90;;;13.40;1.00;;;;;;5088895;28;20847;-55
2022/10/25 07:06:07;;;;;;;7.85;2.00;;;13.50;1.00;;;;;;5071515;28;20823;-55
2022/10/25 07:08:34;;;;;;;7.50;1.80;;;13.90;99.90;;;;;;5089029;28;20389;-56
2022/10/25 07:11:00;;;;;;;5.78;1.80;;;14.10;99.90;;;;;;5089780;28;20851;-55
2022/10/25 07:13:25;;;;;;;6.30;1.70;;;14.10;99.90;;;;;;5089309;28;20410;-55
2022/10/25 07:15:51;;;;;;;6.60;2.10;;;14.00;99.90;;;;;;5090862;28;20973;-55
2022/10/25 07:18:17;;;;;;;8.43;2.17;;;14.40;1.00;;;;;;5093191;28;20382;-56
2022/10/25 07:20:47;;;;;;;7.40;2.03;;;15.70;99.90;;;;;;5093155;28;20378;-56
2022/10/25 07:23:14;;;;;;;6.63;1.85;;;15.90;1.00;;;;;;5093400;28;20430;-56
2022/10/25 07:25:40;;;;;;;7.50;1.70;;;15.60;1.00;;;;;;5092613;28;20400;-56
2022/10/25 07:28:06;;;;;;;6.85;2.03;;;15.20;99.90;;;;;;5093320;28;20724;-56
2022/10/25 07:30:32;;;;;;;7.22;1.80;;;14.80;1.00;;;;;;5093107;28;20423;-56
2022/10/25 07:32:57;;;;;;;7.00;1.87;;;14.60;78.30;;;;;;5093090;28;20410;-56
2022/10/25 07:35:23;;;;;;;9.95;2.00;;;15.60;1.00;;;;;;5093069;28;20393;-56
2022/10/25 07:37:48;;;;;;;6.85;1.70;;;17.00;99.90;;;;;;5092515;28;20386;-57
2022/10/25 07:40:14;;;;;;;7.23;1.80;;;18.70;1.00;;;;;;5093773;28;20382;-57
2022/10/25 07:42:40;;;;;;;6.70;1.33;;;20.30;1.00;;;;;;5092600;28;20381;-57
2022/10/25 07:45:06;;;;;;;6.60;1.50;;;21.20;1.00;;;;;;5093422;28;20771;-57
2022/10/25 07:47:32;;;;;;;7.72;1.80;;;21.60;1.00;;;;;;5092731;28;20787;-58
2022/10/25 07:49:59;;;;;;;8.13;1.60;;;21.70;1.00;;;;;;5093064;28;20406;-57
2022/10/25 07:52:24;;;;;;;5.80;1.65;;;22.20;1.00;;;;;;5092717;28;20439;-57
2022/10/25 07:54:50;;;;;;;6.88;1.80;;;22.30;1.00;;;;;;5092232;28;20418;-57
2022/10/25 07:57:16;;;;;;;5.90;1.80;;;;;;;;;;5093094;28;20477;-58
2022/10/25 07:59:42;;;;;;;5.90;1.60;;;;;;;;;;5092054;28;20854;-58
2022/10/25 08:02:11;;;;;;;6.60;2.17;;;;;;;;;;5093138;28;20820;-58
2022/10/25 08:04:37;;;;;;;6.72;2.85;;;;;;;;;;5091926;28;20385;-58
2022/10/25 08:07:03;;;;;;;6.93;5.55;;;;;;;;;;5108189;28;20845;-58
2022/10/25 08:09:29;;;;;;;9.80;7.60;;;;;;;;;;5092667;28;20370;-58
2022/10/25 08:11:55;;;;;;;10.20;9.20;;;;;;;;;;5091976;28;20374;-58
2022/10/25 08:14:21;;;;;;;9.00;8.10;;;;;;;;;;5092026;28;20417;-58
2022/10/25 08:16:47;;;;;;;9.38;5.05;;;;;;;;;;5091513;28;20839;-58
2022/10/25 08:19:13;;;;;;;7.10;4.10;;;;;;;;;;5092481;28;20893;-58
2022/10/25 08:21:39;;;;;;;7.68;4.50;;;;;;;;;;5092142;28;20824;-59
2022/10/25 08:24:05;;;;;;;6.25;4.50;;;;;;;;;;5092072;28;20370;-58
2022/10/25 08:26:31;;;;;;;7.65;4.10;;;;;;;;;;5090791;28;20371;-59
2022/10/25 08:28:57;;;;;;;9.50;4.18;;;;;;;;;;5092674;28;20453;-59
2022/10/25 08:31:23;;;;;;;7.20;3.70;;;;;;;;;;5092141;28;20409;-58
2022/10/25 08:33:49;;;;;;;8.75;3.60;;;;;;;;;;5090614;28;21029;-58
2022/10/25 08:36:15;;;;;;;7.00;3.60;;;;;;;;;;5092139;28;20440;-58
2022/10/25 08:38:42;;;;;;;6.40;2.80;;;;;;;;;;5091275;28;20373;-58
2022/10/25 08:41:08;;;;;;;7.95;2.75;;;;;;;;;;5092095;28;20836;-58
2022/10/25 08:43:53;;;;;;;10.80;3.88;;;;;;;;;;5090630;28;20390;-59
2022/10/25 08:46:31;;;;;;;7.00;3.40;;;;;;;;;;5092253;28;20366;-59
2022/10/25 08:49:05;;;;;;;8.10;3.10;;;;;;;;;;5092050;28;20362;-59
2022/10/25 08:51:33;;;;;;;16.05;4.90;;;;;;;;;;5091390;28;20427;-59
2022/10/25 08:54:02;;;;;;;11.50;4.72;;;;;;;;;;5091007;28;20409;-59
2022/10/25 08:56:29;;;;;;;13.90;4.47;;;;;;;;;;5092356;28;20366;-59
2022/10/25 08:58:57;;;;;;;13.27;3.15;;;;;;;;;;5091788;28;20487;-58
2022/10/25 09:01:34;;;;;;;12.75;3.20;;;;;;;;;;5091309;28;20389;-58
2022/10/25 09:04:00;;;;;;;8.57;2.30;;;;;;;;;;5091693;28;20424;-58
2022/10/25 09:06:32;;;;;;;7.57;2.40;;;;;;;;;;5091603;28;20373;-58
2022/10/25 09:08:58;;;;;;;8.85;2.40;;;;;;;;;;5091770;28;20376;-58
2022/10/25 09:11:42;;;;;;;8.80;2.10;;;;;;;;;;5091719;28;20685;-59
2022/10/25 09:14:11;;;;;;;7.10;1.98;;;;;;;;;;5091672;28;20398;-58
2022/10/25 09:16:44;;;;;;;7.80;2.20;;;;;;;;;;5090625;28;20439;-59
2022/10/25 09:19:23;;;;;;;9.60;2.53;;;;;;;;;;5090958;28;20453;-58
2022/10/25 09:21:59;;;;;;;6.30;2.80;;;;;;;;;;5090829;28;20913;-59
2022/10/25 09:24:25;;;;;;;6.88;2.50;;;;;;;;;;5091511;28;20385;-58
2022/10/25 09:27:11;;;;;;;7.63;2.10;;;;;;;;;;5090145;28;20770;-58
2022/10/25 09:29:38;;;;;;;8.85;2.20;;;;;;;;;;5090681;28;20362;-58
2022/10/25 09:32:07;;;;;;;5.63;2.00;;;;;;;;;;5090909;28;20374;-58
2022/10/25 09:34:33;;;;;;;6.95;2.45;;;;;;;;;;5090208;28;20402;-58
2022/10/25 09:37:16;;;;;;;5.28;2.03;;;;;;;;;;5091004;28;20849;-58
2022/10/25 09:39:45;;;;;;;6.00;2.10;;;;;;;;;;5089293;28;20704;-58
2022/10/25 09:42:32;;;;;;;6.00;2.00;;;;;;;;;;5090758;28;20379;-58
2022/10/25 09:45:04;;;;;;;6.75;2.40;;;25.80;99.90;;;;;;5090676;28;20398;-58
2022/10/25 09:47:47;;;;;;;5.10;2.00;;;25.60;99.90;;;;;;5091005;28;20369;-58
2022/10/25 09:50:25;;;;;;;7.00;2.00;;;24.90;99.90;;;;;;5090745;28;20384;-58
2022/10/25 09:53:06;;;;;;;7.60;2.60;;;24.80;99.90;;;;;;5090359;28;20552;-58
2022/10/25 09:55:46;;;;;;;6.50;2.00;;;24.60;99.90;;;;;;5090113;28;20394;-58
2022/10/25 09:58:21;;;;;;;5.78;1.63;;;24.90;99.90;;;;;;5090666;28;20379;-58
2022/10/25 10:00:50;;;;;;;6.97;1.90;;;25.00;99.90;;;;;;5089628;28;20382;-58
2022/10/25 10:03:16;;;;;;;5.60;1.70;;;25.40;99.90;;;;;;5090530;28;20394;-58
2022/10/25 10:05:50;;;;;;;6.57;2.10;;;25.50;99.90;;;;;;5089327;28;20982;-58
2022/10/25 10:08:16;;;;;;;5.90;1.92;;;25.40;99.90;;;;;;5090598;28;20378;-58
2022/10/25 10:10:42;;;;;;;6.23;1.80;;;25.30;99.90;;;;;;5090187;28;20385;-58
2022/10/25 10:13:28;;;;;;;7.03;1.52;;;25.20;99.90;;;;;;5090347;28;20404;-58
2022/10/25 10:15:56;;;;;;;7.07;1.73;;;24.70;99.90;;;;;;5089725;28;20481;-58
2022/10/25 10:18:25;;;;;;;6.90;1.90;;;24.90;99.90;;;;;;5090763;28;20791;-58
2022/10/25 10:21:09;;;;;;;6.25;1.70;;;25.10;99.90;;;;;;5089569;28;20431;-58
2022/10/25 10:23:46;;;;;;;7.50;1.50;;;25.20;99.90;;;;;;5089181;28;20390;-58
2022/10/25 10:26:20;;;;;;;6.00;1.60;;;24.50;99.90;;;;;;5090335;28;20382;-58
2022/10/25 10:29:01;;;;;;;6.00;1.50;;;23.60;99.90;;;;;;5089659;28;20374;-57
2022/10/25 10:31:35;;;;;;;7.20;1.40;;;22.50;99.90;;;;;;5090398;28;20442;-57
2022/10/25 10:34:00;;;;;;;6.38;1.20;;;20.90;99.90;;;;;;5089860;28;20426;-57
2022/10/25 10:36:28;;;;;;;9.00;1.58;;;20.50;99.90;;;;;;5089939;28;20475;-57
2022/10/25 10:39:32;;;;;;;6.28;1.50;;;20.30;99.90;;;;;;5089355;28;20395;-57
2022/10/25 10:42:03;;;;;;;8.15;1.48;;;20.10;99.90;;;;;;5084810;28;20461;-57
2022/10/25 10:44:36;;;;;;;7.60;1.85;;;19.70;99.90;;;;;;5090237;28;20807;-57
2022/10/25 10:47:10;;;;;;;6.90;1.50;;;19.30;99.90;;;;;;5089761;28;20382;-57
2022/10/25 10:49:39;;;;;;;5.30;1.07;;;19.20;1.00;;;;;;5089336;28;20366;-57
2022/10/25 10:52:23;;;;;;;9.07;1.90;;;19.10;1.00;;;;;;5094358;28;20933;-57
2022/10/25 10:54:49;;;;;;;7.60;1.50;;;18.90;1.00;;;;;;5093745;28;20409;-57
2022/10/25 10:57:32;;;;;;;6.68;1.67;;;18.90;1.00;;;;;;5094424;28;20912;-57
2022/10/25 10:59:59;;;;;;;6.97;1.80;;;18.90;1.00;;;;;;5094035;28;20369;-57
2022/10/25 11:02:27;;;;;;;10.45;2.30;;;18.90;1.00;;;;;;5094053;28;20847;-57
2022/10/25 11:04:54;;;;;;;13.93;3.47;;;18.90;1.00;;;;;;5093109;28;20405;-57
2022/10/25 11:07:34;;;;;;;12.60;3.83;;;19.90;1.00;;;;;;5094266;28;20377;-57
2022/10/25 11:10:12;;;;;;;14.35;4.30;;;20.90;1.00;;;;;;5093771;28;20378;-57
2022/10/25 11:12:37;;;;;;;7.90;2.00;;;21.60;1.00;;;;;;5092862;28;20389;-57
2022/10/25 11:15:10;;;;;;;7.73;1.50;;;21.30;1.00;;;;;;5093606;28;20413;-57
2022/10/25 11:17:53;;;;;;;6.40;1.67;;;21.00;1.00;;;;;;5093269;28;20366;-57
2022/10/25 11:20:40;;;;;;;8.15;2.03;;;20.50;1.00;;;;;;5093311;28;20385;-57
2022/10/25 11:23:13;;;;;;;7.13;1.40;;;20.40;1.00;;;;;;5093823;28;20432;-57
2022/10/25 11:25:56;;;;;;;5.88;1.50;;;20.20;1.00;;;;;;5093303;28;20382;-57
2022/10/25 11:28:51;;;;;;;6.90;1.70;;;19.60;1.00;;;;;;5093753;28;20378;-57
2022/10/25 11:31:30;;;;;;;8.00;1.80;;;19.70;1.00;;;;;;5093606;28;20728;-57
2022/10/25 11:34:00;;;;;;;6.88;1.60;;;19.80;1.00;;;;;;5091888;28;20416;-57
2022/10/25 11:36:47;;;;;;;8.10;1.70;;;19.80;1.00;;;;;;5093943;28;20385;-57
2022/10/25 11:39:18;;;;;;;8.18;3.15;;;19.80;1.00;;;;;;5093000;28;20378;-57
2022/10/25 11:41:50;;;;;;;8.87;2.13;;;19.80;1.00;;;;;;5092042;28;20390;-57
2022/10/25 11:44:30;;;;;;;6.47;2.00;;;19.90;1.00;;;;;;5092998;28;20457;-57
2022/10/25 11:47:01;;;;;;;7.28;1.60;;;19.90;1.00;;;;;;5092595;28;20850;-57
2022/10/25 11:49:38;;;;;;;8.63;2.00;;;19.70;1.00;;;;;;5093082;28;20378;-57
2022/10/25 11:52:16;;;;;;;6.88;1.35;;;19.70;1.00;;;;;;5093225;28;20370;-57
2022/10/25 11:55:02;;;;;;;8.43;1.38;;;19.60;1.00;;;;;;5092254;28;20409;-57
2022/10/25 11:57:42;;;;;;;10.43;1.80;;;19.40;1.00;;;;;;5093240;28;20460;-57
2022/10/25 12:00:13;;;;;;;8.00;2.00;;;19.50;1.00;;;;;;5092999;28;20373;-57
2022/10/25 12:02:53;;;;;;;5.85;1.30;;;19.60;1.00;;;;;;5090829;28;20871;-57
2022/10/25 12:05:31;;;;;;;6.20;1.27;;;19.90;1.00;;;;;;5092905;28;20387;-57
2022/10/25 12:08:09;;;;;;;7.67;1.20;;;20.10;1.00;;;;;;5092189;28;20393;-57
2022/10/25 12:10:39;;;;;;;6.70;1.20;;;20.30;1.00;;;;;;5091755;28;20385;-57
2022/10/25 12:13:31;;;;;;;7.00;1.70;;;20.20;1.00;;;;;;5092833;28;20389;-57
2022/10/25 12:15:58;;;;;;;6.95;1.30;;;20.40;1.00;;;;;;5091823;28;20374;-57
2022/10/25 12:18:42;;;;;;;7.20;1.20;;;20.60;1.00;;;;;;5092556;28;20374;-57
2022/10/25 12:21:11;;;;;;;8.38;1.60;;;20.90;1.00;;;;;;5092404;28;20366;-57
2022/10/25 12:23:45;;;;;;;7.50;1.80;;;21.00;1.00;;;;;;5091647;28;20381;-57
2022/10/25 12:26:34;;;;;;;7.50;1.80;;;21.20;1.00;;;;;;5092880;28;20903;-57
2022/10/25 12:29:03;;;;;;;7.00;1.20;;;21.40;1.00;;;;;;5092076;28;20864;-57
2022/10/25 12:31:35;;;;;;;9.13;1.70;;;21.40;1.00;;;;;;5093194;28;20497;-57
2022/10/25 12:34:07;;;;;;;7.72;1.50;;;21.60;1.00;;;;;;5092323;28;20450;-57
2022/10/25 12:36:46;;;;;;;5.60;1.25;;;21.70;1.00;;;;;;5091380;28;20385;-57
2022/10/25 12:39:35;;;;;;;7.10;1.23;;;21.70;1.00;;;;;;5092342;28;20370;-57
2022/10/25 12:42:05;;;;;;;9.40;1.80;;;21.70;1.00;;;;;;5073805;28;20386;-57
2022/10/25 12:44:52;;;;;;;8.57;1.70;;;21.50;1.00;;;;;;5092182;28;20381;-57
2022/10/25 12:47:51;;;;;;;7.90;1.30;;;21.70;1.00;;;;;;5091763;28;20561;-57
2022/10/25 12:50:34;;;;;;;7.22;1.27;;;22.10;1.00;;;;;;5092068;28;20389;-57
2022/10/25 12:53:42;;;;;;;7.50;1.30;;;22.30;99.90;;;;;;5091836;28;20386;-57
2022/10/25 12:56:31;;;;;;;6.25;1.10;;;22.10;99.90;;;;;;5089178;28;20934;-57
2022/10/25 12:59:34;;;;;;;6.60;1.30;;;21.70;99.90;;;;;;5091323;28;20374;-57
2022/10/25 13:02:03;;;;;;;5.80;1.30;;;21.60;99.90;;;;;;5091347;28;20474;-57
2022/10/25 13:04:57;;;;;;;7.35;1.30;;;21.40;99.90;;;;;;5091713;28;20401;-57
2022/10/25 13:07:23;;;;;;;7.82;1.30;;;21.10;99.90;;;;;;5091704;28;20379;-57
2022/10/25 13:09:50;;;;;;;5.93;1.20;;;21.10;99.90;;;;;;5090733;28;20374;-55
2022/10/25 13:12:22;;;;;;;5.50;1.20;;;21.10;99.90;;;;;;5091658;28;20416;-56
2022/10/25 13:14:51;;;;;;;5.95;1.50;;;21.20;99.90;;;;;;5090516;28;20413;-56
2022/10/25 13:17:17;;;;;;;5.90;1.70;;;21.40;99.90;;;;;;5091394;28;20439;-56
2022/10/25 13:19:46;;;;;;;6.30;1.40;;;21.30;99.90;;;;;;5090919;28;20766;-56
2022/10/25 13:22:28;;;;;;;5.78;1.48;;;21.40;99.90;;;;;;5091140;28;20435;-56
2022/10/25 13:24:54;;;;;;;8.13;1.80;;;21.30;99.90;;;;;;5090506;28;20874;-56
2022/10/25 13:27:22;;;;;;;7.30;1.50;;;21.30;99.90;;;;;;5091021;28;20408;-56